Gurli — SLEG — position and weather

sailwx.info

Track history (hours):
 
Tides and Currents Weather Stations Pressure Air Temp Water Temp Dewpoint Dewpoint Depression Visibility Wind Speed Wind Dir Waves Ship Positions

Gurli

Last reported at 2014-Oct-31 22:23 UTC. Time now 2014-Nov-01 01:20 UTC.
Position N 59°20' E 018°05'.

Length 21 m.

Type: Passenger vessel. MMSI: 265687640.

Date/timePositionNaut miles runAvg speedWind from/ knotsBaromVisibWave heightAir tempDewpointWater temp
2014-Oct-31 22:23N 59°20' E 018°05'0 0.0
2014-Oct-31 20:22N 59°20' E 018°05'2 2.6
2014-Oct-31 19:32N 59°21' E 018°09'2 2.1
2014-Oct-31 18:33N 59°20' E 018°05'2 2.1
2014-Oct-31 17:32N 59°21' E 018°09'2 2.1
2014-Oct-31 16:32N 59°20' E 018°05'2 2.0
2014-Oct-31 15:32N 59°21' E 018°08'2 1.7
2014-Oct-31 14:24N 59°20' E 018°05'2 2.0
2014-Oct-31 13:32N 59°19' E 018°07'0 0.4
2014-Oct-31 12:33N 59°19' E 018°08'2 1.1
2014-Oct-31 11:09N 59°21' E 018°09'2 3.7
2014-Oct-31 10:33N 59°20' E 018°05'2 1.8
2014-Oct-31 09:32N 59°21' E 018°08'2 1.6
2014-Oct-31 08:22N 59°20' E 018°05'2 2.7
2014-Oct-31 07:26N 59°20' E 018°09'1 1.3
2014-Oct-31 06:33N 59°19' E 018°07'2 0.8
2014-Oct-31 04:26N 59°20' E 018°05'0 0.2
2014-Oct-31 03:32N 59°20' E 018°05'0 0.0
2014-Oct-31 02:26N 59°20' E 018°05'0 0.0
2014-Oct-31 01:26N 59°20' E 018°05'0 0.0
2014-Oct-31 00:23N 59°20' E 018°05'0 0.0
2014-Oct-30 23:32N 59°20' E 018°05'0 0.0
2014-Oct-30 22:29N 59°20' E 018°05'0 0.0
2014-Oct-30 21:29N 59°20' E 018°05'0 0.0
2014-Oct-30 20:29N 59°20' E 018°05'2 2.2
2014-Oct-30 19:32N 59°21' E 018°09'2 2.1
2014-Oct-30 18:33N 59°20' E 018°05'1 0.5
2014-Oct-30 17:33N 59°19' E 018°06'0 0.0
2014-Oct-30 16:32N 59°19' E 018°06'0 0.0
2014-Oct-30 15:33N 59°19' E 018°06'1 0.8
2014-Oct-30 14:33N 59°20' E 018°05'2 1.7
2014-Oct-30 13:32N 59°19' E 018°07'0 0.3
2014-Oct-30 12:33N 59°19' E 018°08'2 1.4
2014-Oct-30 11:23N 59°21' E 018°09'2 2.6
2014-Oct-30 10:33N 59°20' E 018°05'2 1.7
2014-Oct-30 09:30N 59°21' E 018°08'2 1.5
2014-Oct-30 08:14N 59°20' E 018°05'3 3.9
2014-Oct-30 07:33N 59°19' E 018°10'1 1.2
2014-Oct-30 06:33N 59°19' E 018°07'2 0.7
2014-Oct-30 04:13N 59°20' E 018°05'0 0.0
2014-Oct-30 02:22N 59°20' E 018°05'0 0.0
2014-Oct-30 01:31N 59°20' E 018°05'0 0.0
2014-Oct-30 00:31N 59°20' E 018°05'0 0.0
2014-Oct-29 23:31N 59°20' E 018°05'0 0.0
2014-Oct-29 22:07N 59°20' E 018°05'0 0.0
2014-Oct-29 20:25N 59°20' E 018°05'0 0.0
2014-Oct-29 19:19N 59°20' E 018°05'2 1.8
2014-Oct-29 18:17N 59°21' E 018°08'2 2.7
2014-Oct-29 17:33N 59°19' E 018°06'2 1.9
2014-Oct-29 16:27N 59°21' E 018°09'2 2.5
2014-Oct-29 15:33N 59°19' E 018°06'2 2.0
2014-Oct-29 14:28N 59°21' E 018°09'2 2.3
2014-Oct-29 13:33N 59°19' E 018°06'1 1.1
2014-Oct-29 12:32N 59°20' E 018°05'0 0.0
2014-Oct-29 11:32N 59°20' E 018°05'0 0.0
2014-Oct-29 10:29N 59°20' E 018°05'0 0.0
2014-Oct-29 09:29N 59°20' E 018°05'1 1.6
2014-Oct-29 08:32N 59°19' E 018°07'1 1.3
2014-Oct-29 07:29N 59°19' E 018°10'1 1.1
2014-Oct-29 06:29N 59°19' E 018°07'2 0.8
2014-Oct-29 04:23N 59°20' E 018°05'0 0.0
2014-Oct-29 03:32N 59°20' E 018°05'0 0.0
2014-Oct-29 02:26N 59°20' E 018°05'0 0.0
2014-Oct-29 01:26N 59°20' E 018°05'0 0.0
2014-Oct-29 00:29N 59°20' E 018°05'0 0.0
2014-Oct-28 23:29N 59°20' E 018°05'0 0.0
2014-Oct-28 22:26N 59°20' E 018°05'0 0.0
2014-Oct-28 21:26N 59°20' E 018°05'0 0.0
2014-Oct-28 20:29N 59°20' E 018°05'2 1.8
2014-Oct-28 19:27N 59°21' E 018°08'2 2.0
2014-Oct-28 18:33N 59°20' E 018°05'2 2.0
2014-Oct-28 17:33N 59°21' E 018°08'2 1.9
2014-Oct-28 16:33N 59°20' E 018°05'2 2.0
2014-Oct-28 15:30N 59°21' E 018°09'2 2.4
2014-Oct-28 14:33N 59°20' E 018°05'2 1.7
2014-Oct-28 13:33N 59°19' E 018°07'0 0.1
2014-Oct-28 12:31N 59°19' E 018°08'1 1.0
2014-Oct-28 11:33N 59°19' E 018°10'2 2.0
2014-Oct-28 10:33N 59°20' E 018°05'2 1.9
2014-Oct-28 09:33N 59°21' E 018°08'2 1.7
2014-Oct-28 08:23N 59°20' E 018°05'2 1.8
2014-Oct-28 07:16N 59°21' E 018°08'2 2.2
2014-Oct-28 06:24N 59°20' E 018°05'0 0.1
2014-Oct-28 03:29N 59°20' E 018°05'0 0.0
2014-Oct-28 01:23N 59°20' E 018°05'0 0.0
2014-Oct-27 23:32N 59°20' E 018°05'0 0.0
2014-Oct-27 22:14N 59°20' E 018°05'0 0.0
2014-Oct-27 20:31N 59°20' E 018°05'2 2.0
2014-Oct-27 19:31N 59°21' E 018°08'2 2.0
2014-Oct-27 18:33N 59°20' E 018°05'2 2.1
2014-Oct-27 17:28N 59°21' E 018°09'2 2.6
2014-Oct-27 16:33N 59°20' E 018°05'2 2.0
2014-Oct-27 15:23N 59°20' E 018°09'2 2.2
2014-Oct-27 14:15N 59°20' E 018°05'2 2.4
2014-Oct-27 13:32N 59°19' E 018°08'0 0.0
2014-Oct-27 12:29N 59°19' E 018°08'2 1.4
2014-Oct-27 11:17N 59°21' E 018°09'2 2.8
2014-Oct-27 10:33N 59°20' E 018°05'2 1.7
2014-Oct-27 09:31N 59°21' E 018°08'2 1.7
2014-Oct-27 08:24N 59°20' E 018°05'2 1.5
2014-Oct-27 07:11N 59°21' E 018°08'2 3.0
2014-Oct-27 06:32N 59°19' E 018°07'2 2.0
2014-Oct-27 05:29N 59°21' E 018°09'2 2.5
2014-Oct-27 04:31N 59°20' E 018°05'0 0.2
2014-Oct-27 03:26N 59°20' E 018°05'0 0.0
2014-Oct-26 19:26N 59°20' E 018°05'0 0.0
2014-Oct-26 18:26N 59°20' E 018°05'0 0.0
2014-Oct-26 15:26N 59°20' E 018°05'0 0.0
2014-Oct-26 14:26N 59°20' E 018°05'0 0.0
2014-Oct-26 12:32N 59°20' E 018°05'0 0.0
2014-Oct-26 11:32N 59°20' E 018°05'0 0.0
2014-Oct-26 09:32N 59°20' E 018°05'0 0.0
2014-Oct-26 08:20N 59°20' E 018°05'0 0.0
2014-Oct-26 04:08N 59°20' E 018°05'0 0.0
2014-Oct-26 03:26N 59°20' E 018°05'0 0.0
2014-Oct-26 02:20N 59°20' E 018°05'0 0.0
2014-Oct-26 01:32N 59°20' E 018°05'0 0.0
2014-Oct-26 00:32N 59°20' E 018°05'0 0.0
2014-Oct-25 23:32N 59°20' E 018°05'0 0.0
2014-Oct-25 18:20N 59°20' E 018°05'0 0.0
2014-Oct-25 17:32N 59°20' E 018°05'0 0.0
2014-Oct-25 11:26N 59°20' E 018°05'0 0.0
2014-Oct-25 10:26N 59°20' E 018°05'0 0.0
2014-Oct-25 07:32N 59°20' E 018°05'0 0.0
2014-Oct-25 02:08N 59°20' E 018°05'1 0.2
2014-Oct-24 19:32N 59°19' E 018°06'2 2.0
2014-Oct-24 18:25N 59°21' E 018°08'2 2.1
2014-Oct-24 17:32N 59°20' E 018°05'2 2.1
2014-Oct-24 16:33N 59°21' E 018°08'2 2.0
2014-Oct-24 15:31N 59°20' E 018°05'2 2.1
2014-Oct-24 14:30N 59°21' E 018°08'2 2.2
2014-Oct-24 13:32N 59°20' E 018°05'2 1.7
2014-Oct-24 12:32N 59°19' E 018°07'0 0.0
2014-Oct-24 11:32N 59°19' E 018°07'2 1.6
2014-Oct-24 10:24N 59°21' E 018°09'2 2.7
2014-Oct-24 09:33N 59°19' E 018°06'2 1.8
2014-Oct-24 08:32N 59°21' E 018°08'2 1.7
2014-Oct-24 07:27N 59°20' E 018°05'2 1.7
2014-Oct-24 06:15N 59°21' E 018°09'2 2.4
2014-Oct-24 05:26N 59°19' E 018°06'1 0.5
2014-Oct-24 03:33N 59°20' E 018°05'0 0.1
2014-Oct-24 02:24N 59°20' E 018°05'0 0.0
2014-Oct-24 00:30N 59°20' E 018°05'0 0.0
2014-Oct-23 22:30N 59°20' E 018°05'0 0.0
2014-Oct-23 21:30N 59°20' E 018°05'0 0.0
2014-Oct-23 20:24N 59°20' E 018°05'0 0.0
2014-Oct-23 19:24N 59°20' E 018°05'0 0.0
2014-Oct-23 18:24N 59°20' E 018°05'2 2.5
2014-Oct-23 17:26N 59°21' E 018°09'2 2.3
2014-Oct-23 16:30N 59°19' E 018°06'2 1.5
2014-Oct-23 15:20N 59°21' E 018°08'2 2.5
2014-Oct-23 14:33N 59°19' E 018°06'2 1.8
2014-Oct-23 13:33N 59°20' E 018°09'2 1.7
2014-Oct-23 12:33N 59°19' E 018°06'2 0.5
2014-Oct-23 08:21N 59°20' E 018°11'2 2.5
2014-Oct-23 07:33N 59°19' E 018°07'1 0.7
2014-Oct-23 06:27N 59°19' E 018°09'0 0.2
2014-Oct-23 05:26N 59°19' E 018°08'0 0.4
2014-Oct-23 04:26N 59°19' E 018°09'2 0.5
2014-Oct-22 23:28N 59°20' E 018°05'0 0.0
2014-Oct-22 22:28N 59°20' E 018°05'0 0.0
2014-Oct-22 21:28N 59°20' E 018°05'0 0.0
2014-Oct-22 19:18N 59°20' E 018°05'2 2.2
2014-Oct-22 18:25N 59°21' E 018°08'2 2.1
2014-Oct-22 17:31N 59°20' E 018°05'2 2.2
2014-Oct-22 16:26N 59°20' E 018°09'2 2.7
2014-Oct-22 15:32N 59°20' E 018°05'2 1.9
2014-Oct-22 14:32N 59°21' E 018°08'2 1.7
2014-Oct-22 13:22N 59°20' E 018°05'2 2.1
2014-Oct-22 12:29N 59°19' E 018°08'0 0.3
2014-Oct-22 11:33N 59°19' E 018°08'1 0.6
2014-Oct-22 10:33N 59°19' E 018°10'2 1.9
2014-Oct-22 09:33N 59°19' E 018°06'2 1.8
2014-Oct-22 08:30N 59°21' E 018°08'2 1.8
2014-Oct-22 07:30N 59°20' E 018°05'3 2.4
2014-Oct-22 06:27N 59°19' E 018°09'2 1.9
2014-Oct-22 05:26N 59°19' E 018°06'2 2.4
2014-Oct-22 04:31N 59°21' E 018°09'2 2.5
2014-Oct-22 03:33N 59°20' E 018°05'0 0.1
2014-Oct-22 02:14N 59°20' E 018°05'0 0.0
2014-Oct-22 01:32N 59°20' E 018°05'0 0.0
2014-Oct-22 00:29N 59°20' E 018°05'0 0.0
2014-Oct-21 23:23N 59°20' E 018°05'  
Track history (hours):
 
Tides and Currents Weather Stations Pressure Air Temp Water Temp Dewpoint Dewpoint Depression Visibility Wind Speed Wind Dir Waves Ship Positions

Gurli

Last reported at 2014-Oct-31 22:23 UTC. Time now 2014-Nov-01 01:20 UTC.
Position N 59°20' E 018°05'.

Length 21 m.

Type: Passenger vessel. MMSI: 265687640.

Date/timePositionNaut miles runAvg speedWind from/ knotsBaromVisibWave heightAir tempDewpointWater temp
2014-Oct-31 22:23N 59°20' E 018°05'0 0.0
2014-Oct-31 20:22N 59°20' E 018°05'2 2.6
2014-Oct-31 19:32N 59°21' E 018°09'2 2.1
2014-Oct-31 18:33N 59°20' E 018°05'2 2.1
2014-Oct-31 17:32N 59°21' E 018°09'2 2.1
2014-Oct-31 16:32N 59°20' E 018°05'2 2.0
2014-Oct-31 15:32N 59°21' E 018°08'2 1.7
2014-Oct-31 14:24N 59°20' E 018°05'2 2.0
2014-Oct-31 13:32N 59°19' E 018°07'0 0.4
2014-Oct-31 12:33N 59°19' E 018°08'2 1.1
2014-Oct-31 11:09N 59°21' E 018°09'2 3.7
2014-Oct-31 10:33N 59°20' E 018°05'2 1.8
2014-Oct-31 09:32N 59°21' E 018°08'2 1.6
2014-Oct-31 08:22N 59°20' E 018°05'2 2.7
2014-Oct-31 07:26N 59°20' E 018°09'1 1.3
2014-Oct-31 06:33N 59°19' E 018°07'2 0.8
2014-Oct-31 04:26N 59°20' E 018°05'0 0.2
2014-Oct-31 03:32N 59°20' E 018°05'0 0.0
2014-Oct-31 02:26N 59°20' E 018°05'0 0.0
2014-Oct-31 01:26N 59°20' E 018°05'0 0.0
2014-Oct-31 00:23N 59°20' E 018°05'0 0.0
2014-Oct-30 23:32N 59°20' E 018°05'0 0.0
2014-Oct-30 22:29N 59°20' E 018°05'0 0.0
2014-Oct-30 21:29N 59°20' E 018°05'0 0.0
2014-Oct-30 20:29N 59°20' E 018°05'2 2.2
2014-Oct-30 19:32N 59°21' E 018°09'2 2.1
2014-Oct-30 18:33N 59°20' E 018°05'1 0.5
2014-Oct-30 17:33N 59°19' E 018°06'0 0.0
2014-Oct-30 16:32N 59°19' E 018°06'0 0.0
2014-Oct-30 15:33N 59°19' E 018°06'1 0.8
2014-Oct-30 14:33N 59°20' E 018°05'2 1.7
2014-Oct-30 13:32N 59°19' E 018°07'0 0.3
2014-Oct-30 12:33N 59°19' E 018°08'2 1.4
2014-Oct-30 11:23N 59°21' E 018°09'2 2.6
2014-Oct-30 10:33N 59°20' E 018°05'2 1.7
2014-Oct-30 09:30N 59°21' E 018°08'2 1.5
2014-Oct-30 08:14N 59°20' E 018°05'3 3.9
2014-Oct-30 07:33N 59°19' E 018°10'1 1.2
2014-Oct-30 06:33N 59°19' E 018°07'2 0.7
2014-Oct-30 04:13N 59°20' E 018°05'0 0.0
2014-Oct-30 02:22N 59°20' E 018°05'0 0.0
2014-Oct-30 01:31N 59°20' E 018°05'0 0.0
2014-Oct-30 00:31N 59°20' E 018°05'0 0.0
2014-Oct-29 23:31N 59°20' E 018°05'0 0.0
2014-Oct-29 22:07N 59°20' E 018°05'0 0.0
2014-Oct-29 20:25N 59°20' E 018°05'0 0.0
2014-Oct-29 19:19N 59°20' E 018°05'2 1.8
2014-Oct-29 18:17N 59°21' E 018°08'2 2.7
2014-Oct-29 17:33N 59°19' E 018°06'2 1.9
2014-Oct-29 16:27N 59°21' E 018°09'2 2.5
2014-Oct-29 15:33N 59°19' E 018°06'2 2.0
2014-Oct-29 14:28N 59°21' E 018°09'2 2.3
2014-Oct-29 13:33N 59°19' E 018°06'1 1.1
2014-Oct-29 12:32N 59°20' E 018°05'0 0.0
2014-Oct-29 11:32N 59°20' E 018°05'0 0.0
2014-Oct-29 10:29N 59°20' E 018°05'0 0.0
2014-Oct-29 09:29N 59°20' E 018°05'1 1.6
2014-Oct-29 08:32N 59°19' E 018°07'1 1.3
2014-Oct-29 07:29N 59°19' E 018°10'1 1.1
2014-Oct-29 06:29N 59°19' E 018°07'2 0.8
2014-Oct-29 04:23N 59°20' E 018°05'0 0.0
2014-Oct-29 03:32N 59°20' E 018°05'0 0.0
2014-Oct-29 02:26N 59°20' E 018°05'0 0.0
2014-Oct-29 01:26N 59°20' E 018°05'0 0.0
2014-Oct-29 00:29N 59°20' E 018°05'0 0.0
2014-Oct-28 23:29N 59°20' E 018°05'0 0.0
2014-Oct-28 22:26N 59°20' E 018°05'0 0.0
2014-Oct-28 21:26N 59°20' E 018°05'0 0.0
2014-Oct-28 20:29N 59°20' E 018°05'2 1.8
2014-Oct-28 19:27N 59°21' E 018°08'2 2.0
2014-Oct-28 18:33N 59°20' E 018°05'2 2.0
2014-Oct-28 17:33N 59°21' E 018°08'2 1.9
2014-Oct-28 16:33N 59°20' E 018°05'2 2.0
2014-Oct-28 15:30N 59°21' E 018°09'2 2.4
2014-Oct-28 14:33N 59°20' E 018°05'2 1.7
2014-Oct-28 13:33N 59°19' E 018°07'0 0.1
2014-Oct-28 12:31N 59°19' E 018°08'1 1.0
2014-Oct-28 11:33N 59°19' E 018°10'2 2.0
2014-Oct-28 10:33N 59°20' E 018°05'2 1.9
2014-Oct-28 09:33N 59°21' E 018°08'2 1.7
2014-Oct-28 08:23N 59°20' E 018°05'2 1.8
2014-Oct-28 07:16N 59°21' E 018°08'2 2.2
2014-Oct-28 06:24N 59°20' E 018°05'0 0.1
2014-Oct-28 03:29N 59°20' E 018°05'0 0.0
2014-Oct-28 01:23N 59°20' E 018°05'0 0.0
2014-Oct-27 23:32N 59°20' E 018°05'0 0.0
2014-Oct-27 22:14N 59°20' E 018°05'0 0.0
2014-Oct-27 20:31N 59°20' E 018°05'2 2.0
2014-Oct-27 19:31N 59°21' E 018°08'2 2.0
2014-Oct-27 18:33N 59°20' E 018°05'2 2.1
2014-Oct-27 17:28N 59°21' E 018°09'2 2.6
2014-Oct-27 16:33N 59°20' E 018°05'2 2.0
2014-Oct-27 15:23N 59°20' E 018°09'2 2.2
2014-Oct-27 14:15N 59°20' E 018°05'2 2.4
2014-Oct-27 13:32N 59°19' E 018°08'0 0.0
2014-Oct-27 12:29N 59°19' E 018°08'2 1.4
2014-Oct-27 11:17N 59°21' E 018°09'2 2.8
2014-Oct-27 10:33N 59°20' E 018°05'2 1.7
2014-Oct-27 09:31N 59°21' E 018°08'2 1.7
2014-Oct-27 08:24N 59°20' E 018°05'2 1.5
2014-Oct-27 07:11N 59°21' E 018°08'2 3.0
2014-Oct-27 06:32N 59°19' E 018°07'2 2.0
2014-Oct-27 05:29N 59°21' E 018°09'2 2.5
2014-Oct-27 04:31N 59°20' E 018°05'0 0.2
2014-Oct-27 03:26N 59°20' E 018°05'0 0.0
2014-Oct-26 19:26N 59°20' E 018°05'0 0.0
2014-Oct-26 18:26N 59°20' E 018°05'0 0.0
2014-Oct-26 15:26N 59°20' E 018°05'0 0.0
2014-Oct-26 14:26N 59°20' E 018°05'0 0.0
2014-Oct-26 12:32N 59°20' E 018°05'0 0.0
2014-Oct-26 11:32N 59°20' E 018°05'0 0.0
2014-Oct-26 09:32N 59°20' E 018°05'0 0.0
2014-Oct-26 08:20N 59°20' E 018°05'0 0.0
2014-Oct-26 04:08N 59°20' E 018°05'0 0.0
2014-Oct-26 03:26N 59°20' E 018°05'0 0.0
2014-Oct-26 02:20N 59°20' E 018°05'0 0.0
2014-Oct-26 01:32N 59°20' E 018°05'0 0.0
2014-Oct-26 00:32N 59°20' E 018°05'0 0.0
2014-Oct-25 23:32N 59°20' E 018°05'0 0.0
2014-Oct-25 18:20N 59°20' E 018°05'0 0.0
2014-Oct-25 17:32N 59°20' E 018°05'0 0.0
2014-Oct-25 11:26N 59°20' E 018°05'0 0.0
2014-Oct-25 10:26N 59°20' E 018°05'0 0.0
2014-Oct-25 07:32N 59°20' E 018°05'0 0.0
2014-Oct-25 02:08N 59°20' E 018°05'1 0.2
2014-Oct-24 19:32N 59°19' E 018°06'2 2.0
2014-Oct-24 18:25N 59°21' E 018°08'2 2.1
2014-Oct-24 17:32N 59°20' E 018°05'2 2.1
2014-Oct-24 16:33N 59°21' E 018°08'2 2.0
2014-Oct-24 15:31N 59°20' E 018°05'2 2.1
2014-Oct-24 14:30N 59°21' E 018°08'2 2.2
2014-Oct-24 13:32N 59°20' E 018°05'2 1.7
2014-Oct-24 12:32N 59°19' E 018°07'0 0.0
2014-Oct-24 11:32N 59°19' E 018°07'2 1.6
2014-Oct-24 10:24N 59°21' E 018°09'2 2.7
2014-Oct-24 09:33N 59°19' E 018°06'2 1.8
2014-Oct-24 08:32N 59°21' E 018°08'2 1.7
2014-Oct-24 07:27N 59°20' E 018°05'2 1.7
2014-Oct-24 06:15N 59°21' E 018°09'2 2.4
2014-Oct-24 05:26N 59°19' E 018°06'1 0.5
2014-Oct-24 03:33N 59°20' E 018°05'0 0.1
2014-Oct-24 02:24N 59°20' E 018°05'0 0.0
2014-Oct-24 00:30N 59°20' E 018°05'0 0.0
2014-Oct-23 22:30N 59°20' E 018°05'0 0.0
2014-Oct-23 21:30N 59°20' E 018°05'0 0.0
2014-Oct-23 20:24N 59°20' E 018°05'0 0.0
2014-Oct-23 19:24N 59°20' E 018°05'0 0.0
2014-Oct-23 18:24N 59°20' E 018°05'2 2.5
2014-Oct-23 17:26N 59°21' E 018°09'2 2.3
2014-Oct-23 16:30N 59°19' E 018°06'2 1.5
2014-Oct-23 15:20N 59°21' E 018°08'2 2.5
2014-Oct-23 14:33N 59°19' E 018°06'2 1.8
2014-Oct-23 13:33N 59°20' E 018°09'2 1.7
2014-Oct-23 12:33N 59°19' E 018°06'2 0.5
2014-Oct-23 08:21N 59°20' E 018°11'2 2.5
2014-Oct-23 07:33N 59°19' E 018°07'1 0.7
2014-Oct-23 06:27N 59°19' E 018°09'0 0.2
2014-Oct-23 05:26N 59°19' E 018°08'0 0.4
2014-Oct-23 04:26N 59°19' E 018°09'2 0.5
2014-Oct-22 23:28N 59°20' E 018°05'0 0.0
2014-Oct-22 22:28N 59°20' E 018°05'0 0.0
2014-Oct-22 21:28N 59°20' E 018°05'0 0.0
2014-Oct-22 19:18N 59°20' E 018°05'2 2.2
2014-Oct-22 18:25N 59°21' E 018°08'2 2.1
2014-Oct-22 17:31N 59°20' E 018°05'2 2.2
2014-Oct-22 16:26N 59°20' E 018°09'2 2.7
2014-Oct-22 15:32N 59°20' E 018°05'2 1.9
2014-Oct-22 14:32N 59°21' E 018°08'2 1.7
2014-Oct-22 13:22N 59°20' E 018°05'2 2.1
2014-Oct-22 12:29N 59°19' E 018°08'0 0.3
2014-Oct-22 11:33N 59°19' E 018°08'1 0.6
2014-Oct-22 10:33N 59°19' E 018°10'2 1.9
2014-Oct-22 09:33N 59°19' E 018°06'2 1.8
2014-Oct-22 08:30N 59°21' E 018°08'2 1.8
2014-Oct-22 07:30N 59°20' E 018°05'3 2.4
2014-Oct-22 06:27N 59°19' E 018°09'2 1.9
2014-Oct-22 05:26N 59°19' E 018°06'2 2.4
2014-Oct-22 04:31N 59°21' E 018°09'2 2.5
2014-Oct-22 03:33N 59°20' E 018°05'0 0.1
2014-Oct-22 02:14N 59°20' E 018°05'0 0.0
2014-Oct-22 01:32N 59°20' E 018°05'0 0.0
2014-Oct-22 00:29N 59°20' E 018°05'0 0.0
2014-Oct-21 23:23N 59°20' E 018°05'  

Dump ship's entire track history